createdAt,value
2023-05-14T00:02:27.996Z,10.71
2023-05-14T00:05:29.685Z,10.76
2023-05-14T00:08:31.373Z,10.73
2023-05-14T00:11:34.356Z,10.65
2023-05-14T00:14:36.221Z,10.59
2023-05-14T00:17:37.982Z,10.60
2023-05-14T00:20:41.143Z,10.56
2023-05-14T00:23:42.888Z,10.55
2023-05-14T00:26:45.887Z,10.50
2023-05-14T00:29:47.669Z,10.52
2023-05-14T00:32:49.651Z,10.45
2023-05-14T00:35:51.282Z,10.51
2023-05-14T00:38:52.910Z,10.42
2023-05-14T00:41:55.921Z,10.44
2023-05-14T00:44:57.647Z,10.45
2023-05-14T00:47:59.347Z,10.41
2023-05-14T00:51:01.133Z,10.37
2023-05-14T00:54:02.892Z,10.33
2023-05-14T00:57:06.719Z,10.36
2023-05-14T01:00:09.387Z,10.35
2023-05-14T01:03:11.476Z,10.31
2023-05-14T01:06:18.453Z,10.33
2023-05-14T01:09:26.476Z,10.29
2023-05-14T01:12:35.824Z,10.27
2023-05-14T01:15:39.614Z,10.23
2023-05-14T01:18:43.965Z,10.19
2023-05-14T01:21:46.982Z,10.22
2023-05-14T01:24:48.628Z,10.17
2023-05-14T01:27:55.426Z,10.22
2023-05-14T01:31:01.553Z,10.20
2023-05-14T01:34:05.571Z,10.20
2023-05-14T01:37:10.303Z,10.18
2023-05-14T01:40:12.533Z,10.17
2023-05-14T01:43:15.662Z,10.20
2023-05-14T01:46:18.283Z,10.19
2023-05-14T01:49:22.907Z,10.21
2023-05-14T01:52:25.931Z,10.19
2023-05-14T01:55:27.544Z,10.18
2023-05-14T01:58:29.179Z,10.17
2023-05-14T02:01:30.832Z,10.13
2023-05-14T02:04:32.529Z,10.19
2023-05-14T02:07:35.527Z,10.08
2023-05-14T02:10:37.249Z,10.06
2023-05-14T02:13:38.880Z,9.97
2023-05-14T02:16:40.575Z,9.95
2023-05-14T02:19:42.503Z,9.89
2023-05-14T02:22:45.635Z,9.91
2023-05-14T02:25:47.307Z,9.93
2023-05-14T02:28:48.954Z,9.94
2023-05-14T02:31:51.101Z,9.99
2023-05-14T02:34:52.869Z,9.99
2023-05-14T02:37:55.843Z,10.05
2023-05-14T02:40:57.514Z,10.02
2023-05-14T02:43:59.195Z,10.04
2023-05-14T02:47:01.141Z,10.03
2023-05-14T02:50:02.913Z,10.02
2023-05-14T02:53:05.931Z,10.02
2023-05-14T02:56:07.844Z,10.03
2023-05-14T02:59:09.500Z,10.07
2023-05-14T03:02:11.917Z,10.04
2023-05-14T03:05:14.056Z,10.07
2023-05-14T03:08:17.051Z,10.08
2023-05-14T03:11:18.741Z,10.14
2023-05-14T03:14:20.645Z,10.10
2023-05-14T03:17:22.297Z,10.11
2023-05-14T03:20:24.467Z,10.17
2023-05-14T03:23:27.687Z,10.15
2023-05-14T03:26:29.288Z,10.10
2023-05-14T03:29:31.127Z,10.19
2023-05-14T03:32:33.024Z,10.18
2023-05-14T03:35:34.934Z,10.21
2023-05-14T03:38:38.164Z,10.24
2023-05-14T03:41:39.791Z,10.19
2023-05-14T03:44:41.657Z,10.19
2023-05-14T03:47:43.398Z,10.28
2023-05-14T03:50:45.144Z,10.24
2023-05-14T03:53:48.153Z,10.27
2023-05-14T03:56:49.795Z,10.27
2023-05-14T03:59:51.510Z,10.27
2023-05-14T04:02:53.250Z,10.27
2023-05-14T04:05:54.891Z,10.29
2023-05-14T04:08:57.909Z,10.27
2023-05-14T04:12:00.792Z,10.24
2023-05-14T04:15:02.444Z,10.28
2023-05-14T04:18:04.462Z,10.31
2023-05-14T04:21:06.244Z,10.38
2023-05-14T04:24:09.413Z,10.36
2023-05-14T04:27:11.057Z,10.39
2023-05-14T04:30:13.142Z,10.46
2023-05-14T04:33:14.782Z,10.44
2023-05-14T04:36:16.408Z,10.40
2023-05-14T04:39:19.369Z,10.42
2023-05-14T04:42:20.947Z,10.41
2023-05-14T04:45:22.781Z,10.47
2023-05-14T04:48:24.752Z,10.51
2023-05-14T04:51:26.363Z,10.51
2023-05-14T04:54:29.514Z,10.54
2023-05-14T04:57:31.265Z,10.58
2023-05-14T05:00:32.969Z,10.55
2023-05-14T05:03:34.752Z,10.57
2023-05-14T05:06:36.612Z,10.57
2023-05-14T05:09:39.649Z,10.63
2023-05-14T05:12:41.553Z,10.67
2023-05-14T05:15:43.353Z,10.75
2023-05-14T05:18:45.041Z,10.76
2023-05-14T05:21:46.820Z,10.80
2023-05-14T05:24:50.155Z,10.78
2023-05-14T05:27:51.834Z,10.81
2023-05-14T05:30:53.534Z,10.84
2023-05-14T05:33:55.170Z,10.89
2023-05-14T05:36:56.860Z,10.88
2023-05-14T05:39:59.882Z,10.96
2023-05-14T05:43:01.772Z,10.95
2023-05-14T05:46:03.445Z,10.96
2023-05-14T05:49:05.288Z,10.98
2023-05-14T05:52:07.168Z,11.00
2023-05-14T05:55:10.673Z,11.02
2023-05-14T05:58:12.090Z,11.06
2023-05-14T06:01:14.158Z,11.12
2023-05-14T06:04:16.099Z,11.14
2023-05-14T06:07:17.734Z,11.12
2023-05-14T06:10:20.763Z,11.19
2023-05-14T06:13:22.350Z,11.24
2023-05-14T06:16:24.211Z,11.25
2023-05-14T06:19:25.982Z,11.25
2023-05-14T06:22:27.845Z,11.30
2023-05-14T06:25:30.860Z,11.34
2023-05-14T06:28:32.730Z,11.35
2023-05-14T06:31:34.350Z,11.39
2023-05-14T06:34:36.300Z,11.38
2023-05-14T06:37:37.954Z,11.45
2023-05-14T06:40:41.201Z,11.43
2023-05-14T06:43:43.274Z,11.53
2023-05-14T06:46:45.129Z,11.55
2023-05-14T06:49:46.734Z,11.64
2023-05-14T06:52:48.386Z,11.75
2023-05-14T06:55:51.387Z,11.70
2023-05-14T06:58:53.271Z,11.75
2023-05-14T07:01:54.925Z,11.79
2023-05-14T07:04:56.557Z,11.76
2023-05-14T07:07:58.202Z,11.81
2023-05-14T07:11:01.267Z,11.89
2023-05-14T07:14:03.162Z,11.87
2023-05-14T07:17:05.044Z,11.85
2023-05-14T07:20:08.023Z,11.94
2023-05-14T07:23:09.808Z,12.04
2023-05-14T07:26:13.062Z,12.04
2023-05-14T07:29:14.726Z,12.10
2023-05-14T07:32:16.540Z,12.21
2023-05-14T07:35:18.461Z,12.31
2023-05-14T07:38:20.216Z,12.32
2023-05-14T07:41:23.234Z,12.18
2023-05-14T07:44:25.272Z,12.23
2023-05-14T07:47:27.260Z,12.31
2023-05-14T07:50:39.637Z,12.36
2023-05-14T07:53:41.787Z,12.40
2023-05-14T07:56:44.828Z,12.49
2023-05-14T07:59:47.355Z,12.49
2023-05-14T08:02:49.225Z,12.57
2023-05-14T08:05:50.941Z,12.65
2023-05-14T08:08:52.876Z,12.77
2023-05-14T08:11:55.891Z,12.83
2023-05-14T08:14:57.519Z,12.96
2023-05-14T08:17:59.195Z,12.90
2023-05-14T08:21:02.708Z,13.06
2023-05-14T08:24:05.709Z,13.15
2023-05-14T08:27:08.912Z,13.24
2023-05-14T08:30:11.330Z,13.49
2023-05-14T08:33:13.271Z,13.54
2023-05-14T08:36:14.988Z,13.59
2023-05-14T08:39:16.852Z,13.65
2023-05-14T08:42:21.161Z,13.74
2023-05-14T08:45:29.820Z,13.86
2023-05-14T08:48:33.518Z,13.95
2023-05-14T08:51:36.065Z,13.93
2023-05-14T08:54:38.038Z,13.94
2023-05-14T08:57:41.132Z,13.90
2023-05-14T09:00:42.923Z,13.93
2023-05-14T09:03:45.743Z,13.75
2023-05-14T09:06:49.647Z,13.69
2023-05-14T09:09:51.829Z,13.68
2023-05-14T09:12:55.100Z,13.69
2023-05-14T09:15:57.814Z,13.78
2023-05-14T09:18:59.614Z,13.90
2023-05-14T09:22:01.244Z,14.06
2023-05-14T09:25:05.047Z,14.10
2023-05-14T09:28:09.130Z,13.98
2023-05-14T09:31:11.112Z,13.87
2023-05-14T09:34:24.364Z,13.85
2023-05-14T09:37:28.318Z,13.88
2023-05-14T09:40:30.149Z,13.83
2023-05-14T09:43:33.274Z,13.78
2023-05-14T09:46:34.898Z,13.76
2023-05-14T09:49:36.483Z,13.63
2023-05-14T09:52:38.737Z,13.51
2023-05-14T09:55:40.797Z,13.52
2023-05-14T09:58:43.880Z,13.45
2023-05-14T10:01:45.827Z,13.34
2023-05-14T10:04:49.092Z,13.28
2023-05-14T10:07:54.240Z,13.25
2023-05-14T10:10:58.216Z,13.20
2023-05-14T10:14:03.668Z,13.20
2023-05-14T10:17:06.556Z,13.20
2023-05-14T10:20:11.374Z,13.30
2023-05-14T10:23:13.752Z,13.38
2023-05-14T10:26:15.939Z,13.42
2023-05-14T10:29:18.891Z,13.56
2023-05-14T10:32:21.302Z,13.70
2023-05-14T10:35:23.248Z,13.78
2023-05-14T10:38:26.895Z,13.79
2023-05-14T10:41:28.835Z,13.75
2023-05-14T10:44:35.023Z,13.69
2023-05-14T10:47:38.114Z,13.61
2023-05-14T10:50:39.846Z,13.55
2023-05-14T10:53:43.163Z,13.50
2023-05-14T10:56:45.773Z,13.52
2023-05-14T10:59:50.027Z,13.53
2023-05-14T11:02:56.379Z,13.48
2023-05-14T11:05:59.238Z,13.42
2023-05-14T11:09:01.848Z,13.45
2023-05-14T11:12:03.806Z,13.45
2023-05-14T11:15:09.300Z,13.45
2023-05-14T11:18:11.262Z,13.47
2023-05-14T11:21:13.302Z,13.41
2023-05-14T11:24:14.945Z,13.46
2023-05-14T11:27:17.435Z,13.47
2023-05-14T11:30:21.700Z,13.46
2023-05-14T11:33:23.501Z,13.45
2023-05-14T11:36:28.096Z,13.43
2023-05-14T11:39:29.823Z,13.52
2023-05-14T11:42:31.719Z,13.51
2023-05-14T11:45:34.891Z,13.54
2023-05-14T11:48:36.515Z,13.61
2023-05-14T11:51:38.198Z,13.58
2023-05-14T11:54:41.225Z,13.57
2023-05-14T11:57:43.249Z,13.59
2023-05-14T12:00:49.618Z,13.49
2023-05-14T12:03:51.870Z,13.39
2023-05-14T12:06:53.672Z,13.53
2023-05-14T12:10:00.291Z,13.49
2023-05-14T12:13:06.978Z,13.44
2023-05-14T12:16:09.988Z,13.43
2023-05-14T12:19:14.031Z,13.37
2023-05-14T12:22:20.507Z,13.30
2023-05-14T12:25:22.168Z,13.35
2023-05-14T12:28:23.781Z,13.40
2023-05-14T12:31:29.823Z,13.42
2023-05-14T12:34:31.488Z,13.37
2023-05-14T12:37:33.193Z,13.45
2023-05-14T12:40:34.816Z,13.37
2023-05-14T12:43:36.780Z,13.43
2023-05-14T12:46:39.815Z,13.29
2023-05-14T12:49:41.587Z,13.23
2023-05-14T12:52:43.199Z,13.33
2023-05-14T12:55:45.115Z,13.31
2023-05-14T12:58:47.109Z,13.35
2023-05-14T13:01:50.146Z,13.32
2023-05-14T13:04:51.799Z,13.30
2023-05-14T13:07:53.526Z,13.30
2023-05-14T13:10:55.951Z,13.39
2023-05-14T13:13:58.030Z,13.47
2023-05-14T13:17:01.447Z,13.43
2023-05-14T13:20:03.055Z,13.42
2023-05-14T13:23:04.935Z,13.30
2023-05-14T13:26:06.593Z,13.15
2023-05-14T13:29:08.208Z,12.99
2023-05-14T13:32:11.318Z,12.88
2023-05-14T13:35:13.795Z,12.74
2023-05-14T13:38:15.784Z,12.77
2023-05-14T13:41:17.795Z,12.72
2023-05-14T13:44:19.811Z,12.69
2023-05-14T13:47:23.159Z,12.71
2023-05-14T13:50:24.848Z,12.69
2023-05-14T13:53:27.026Z,12.61
2023-05-14T13:56:30.147Z,12.52
2023-05-14T13:59:31.806Z,12.45
2023-05-14T14:02:34.789Z,12.38
2023-05-14T14:05:36.712Z,12.27
2023-05-14T14:08:38.605Z,12.28
2023-05-14T14:11:40.876Z,12.21
2023-05-14T14:14:42.516Z,12.23
2023-05-14T14:17:45.666Z,12.20
2023-05-14T14:20:47.535Z,12.19
2023-05-14T14:23:49.238Z,12.16
2023-05-14T14:26:50.866Z,12.10
2023-05-14T14:29:52.712Z,12.06
2023-05-14T14:32:55.808Z,12.05
2023-05-14T14:35:57.581Z,12.12
2023-05-14T14:38:59.330Z,12.01
2023-05-14T14:42:00.986Z,11.89
2023-05-14T14:45:03.036Z,11.87
2023-05-14T14:48:26.358Z,11.85
2023-05-14T14:51:28.006Z,11.82
2023-05-14T14:54:29.693Z,11.89
2023-05-14T14:57:31.375Z,11.94
2023-05-14T15:00:33.734Z,11.93
2023-05-14T15:03:36.833Z,11.96
2023-05-14T15:06:38.559Z,11.89
2023-05-14T15:09:40.218Z,11.85
2023-05-14T15:12:41.934Z,11.89
2023-05-14T15:15:43.563Z,11.87
2023-05-14T15:18:46.798Z,11.81
2023-05-14T15:21:48.691Z,11.74
2023-05-14T15:24:50.541Z,11.72
2023-05-14T15:27:52.291Z,11.74
2023-05-14T15:30:54.179Z,11.74
2023-05-14T15:33:57.433Z,11.71
2023-05-14T15:36:59.380Z,11.62
2023-05-14T15:40:01.113Z,11.66
2023-05-14T15:43:03.589Z,11.76
2023-05-14T15:46:05.360Z,11.72
2023-05-14T15:49:08.563Z,11.67
2023-05-14T15:52:10.295Z,11.71
2023-05-14T15:55:12.162Z,11.68
2023-05-14T15:58:13.893Z,11.62
2023-05-14T16:01:15.790Z,11.74
2023-05-14T16:04:18.985Z,11.75
2023-05-14T16:07:20.923Z,11.73
2023-05-14T16:10:23.056Z,11.70
2023-05-14T16:13:25.048Z,11.73
2023-05-14T16:16:26.857Z,11.72
2023-05-14T16:19:30.060Z,11.60
2023-05-14T16:22:32.050Z,11.71
2023-05-14T16:25:33.627Z,11.62
2023-05-14T16:28:35.279Z,11.72
2023-05-14T16:31:36.860Z,11.70
2023-05-14T16:34:40.016Z,11.76
2023-05-14T16:37:41.676Z,11.71
2023-05-14T16:40:43.479Z,11.75
2023-05-14T16:43:45.186Z,11.76
2023-05-14T16:46:47.079Z,11.68
2023-05-14T16:49:50.106Z,11.76
2023-05-14T16:52:52.065Z,11.75
2023-05-14T16:55:54.211Z,11.77
2023-05-14T16:58:56.012Z,11.71
2023-05-14T17:01:58.162Z,11.75
2023-05-14T17:05:01.383Z,11.75
2023-05-14T17:08:03.644Z,11.77
2023-05-14T17:11:05.462Z,11.77
2023-05-14T17:14:07.103Z,11.77
2023-05-14T17:17:08.952Z,11.77
2023-05-14T17:20:14.133Z,11.77
2023-05-14T17:23:17.862Z,11.75
2023-05-14T17:26:20.097Z,11.77
2023-05-14T17:29:21.931Z,11.80
2023-05-14T17:32:23.939Z,11.79
2023-05-14T17:35:27.189Z,11.78
2023-05-14T17:38:28.841Z,11.81
2023-05-14T17:41:30.592Z,11.78
2023-05-14T17:44:32.372Z,11.75
2023-05-14T17:47:34.123Z,11.79
2023-05-14T17:50:37.372Z,11.81
2023-05-14T17:53:39.017Z,11.83
2023-05-14T17:56:41.116Z,11.83
2023-05-14T17:59:42.769Z,11.86
2023-05-14T18:02:45.368Z,11.86
2023-05-14T18:05:48.506Z,11.82
2023-05-14T18:08:50.378Z,11.84
2023-05-14T18:11:52.111Z,11.88
2023-05-14T18:14:54.093Z,11.89
2023-05-14T18:17:55.828Z,11.93
2023-05-14T18:20:58.918Z,11.93
2023-05-14T18:24:01.115Z,11.95
2023-05-14T18:27:03.048Z,11.93
2023-05-14T18:30:06.611Z,11.91
2023-05-14T18:33:08.830Z,11.90
2023-05-14T18:36:12.083Z,11.97
2023-05-14T18:39:13.854Z,11.94
2023-05-14T18:42:15.604Z,11.94
2023-05-14T18:45:17.401Z,11.99
2023-05-14T18:48:19.517Z,11.98
2023-05-14T18:51:23.099Z,11.97
2023-05-14T18:54:24.889Z,12.03
2023-05-14T18:57:27.109Z,12.01
2023-05-14T19:00:29.029Z,12.02
2023-05-14T19:03:31.559Z,11.96
2023-05-14T19:06:35.434Z,12.00
2023-05-14T19:09:37.258Z,12.00
2023-05-14T19:12:39.766Z,12.02
2023-05-14T19:15:42.649Z,12.05
2023-05-14T19:18:44.806Z,12.08
2023-05-14T19:21:47.966Z,12.06
2023-05-14T19:27:56.880Z,12.09
2023-05-14T19:30:58.718Z,12.09
2023-05-14T19:34:00.418Z,12.11
2023-05-14T19:37:03.565Z,11.99
2023-05-14T19:40:07.059Z,12.12
2023-05-14T19:43:09.539Z,12.12
2023-05-14T19:46:11.693Z,12.13
2023-05-14T19:49:13.681Z,12.07
2023-05-14T19:52:17.083Z,12.11
2023-05-14T19:55:18.909Z,12.16
2023-05-14T19:58:21.249Z,12.20
2023-05-14T20:01:23.086Z,12.23
2023-05-14T20:04:25.054Z,12.19
2023-05-14T20:07:28.066Z,12.16
2023-05-14T20:10:29.973Z,12.14
2023-05-14T20:13:31.634Z,12.18
2023-05-14T20:16:33.941Z,12.16
2023-05-14T20:19:35.708Z,12.20
2023-05-14T20:22:38.794Z,12.20
2023-05-14T20:25:41.079Z,12.27
2023-05-14T20:28:43.068Z,12.32
2023-05-14T20:31:44.682Z,12.32
2023-05-14T20:34:46.840Z,12.28
2023-05-14T20:37:50.112Z,12.26
2023-05-14T20:40:52.035Z,12.23
2023-05-14T20:43:53.780Z,12.26
2023-05-14T20:46:55.440Z,12.28
2023-05-14T20:49:57.074Z,12.25
2023-05-14T20:53:00.144Z,12.26
2023-05-14T20:56:01.986Z,12.25
2023-05-14T20:59:03.605Z,12.32
2023-05-14T21:02:05.662Z,12.32
2023-05-14T21:05:07.505Z,12.39
2023-05-14T21:08:10.836Z,12.52
2023-05-14T21:11:12.595Z,12.52
2023-05-14T21:14:14.264Z,12.51
2023-05-14T21:17:16.117Z,12.52
2023-05-14T21:20:17.999Z,12.38
2023-05-14T21:23:21.027Z,12.27
2023-05-14T21:26:22.871Z,12.25
2023-05-14T21:29:24.516Z,12.25
2023-05-14T21:32:26.248Z,12.28
2023-05-14T21:35:27.998Z,12.23
2023-05-14T21:38:31.257Z,12.27
2023-05-14T21:41:32.885Z,12.22
2023-05-14T21:44:34.756Z,12.23
2023-05-14T21:47:37.180Z,12.23
2023-05-14T21:50:39.072Z,12.22
2023-05-14T21:53:42.073Z,12.21
2023-05-14T21:56:43.986Z,12.23
2023-05-14T21:59:45.670Z,12.22
2023-05-14T22:02:47.320Z,12.24
2023-05-14T22:05:49.031Z,12.22
2023-05-14T22:08:52.216Z,12.17
2023-05-14T22:11:53.848Z,12.21
2023-05-14T22:14:55.614Z,12.22
2023-05-14T22:17:57.546Z,12.22
2023-05-14T22:20:59.533Z,12.22
2023-05-14T22:24:02.708Z,12.18
2023-05-14T22:27:04.664Z,12.20
2023-05-14T22:30:07.608Z,12.19
2023-05-14T22:33:09.648Z,12.18
2023-05-14T22:36:11.294Z,12.20
2023-05-14T22:39:14.439Z,12.20
2023-05-14T22:42:16.007Z,12.19
2023-05-14T22:45:17.625Z,12.18
2023-05-14T22:48:19.523Z,12.14
2023-05-14T22:51:21.182Z,12.16
2023-05-14T22:54:24.182Z,12.16
2023-05-14T22:57:26.681Z,12.20
2023-05-14T23:00:28.371Z,12.20
2023-05-14T23:03:30.146Z,12.19
2023-05-14T23:06:31.857Z,12.19
2023-05-14T23:09:34.880Z,12.19
2023-05-14T23:12:36.520Z,12.21
2023-05-14T23:15:38.586Z,12.22
2023-05-14T23:18:40.443Z,12.23
2023-05-14T23:21:42.223Z,12.23
2023-05-14T23:24:45.156Z,12.19
2023-05-14T23:27:46.794Z,12.20
2023-05-14T23:30:48.528Z,12.23
2023-05-14T23:33:50.650Z,12.20
2023-05-14T23:36:52.691Z,12.20
2023-05-14T23:39:55.750Z,12.15
2023-05-14T23:42:57.391Z,12.17
2023-05-14T23:45:59.348Z,12.16
2023-05-14T23:49:01.316Z,12.17
2023-05-14T23:52:03.097Z,12.16
2023-05-14T23:55:07.346Z,12.15
2023-05-14T23:58:09.038Z,12.11
